Terminal Aerodrome Forecast
Issued by NWS San Angelo, TX

Current Version | Previous Version | Text Only | Print | Product List | Glossary On
Versions: 1 2 3 4 5 6 7 8 9 10 11 12 13 14
388
FTUS44 KSJT 260407 AAB
TAFSJT
TAF AMD
KSJT 260407Z 2604/2624 13014G21KT P6SM FEW070
     FM260600 16004KT P6SM SCT150
     FM261800 09007KT P6SM VCSH SCT060 BKN250=

USA.gov is the U.S. government's official web portal to all federal, state and local government web resources and services.